Terminal Aerodrome Forecast
Issued by NWS

Home | Current Version | Previous Version | Text Only | Print | Product List | Glossary On
Versions: 1 2 3 4 5 6 7 8 9 10 11 12 13
000
FTUS44 KSJT 011700
TAFJCT
TAF
KJCT 011722Z 0118/0218 19011G17KT P6SM FEW050
     FM020000 17008KT P6SM FEW250
     FM020900 18006KT P6SM BKN015
     FM021600 19008KT P6SM FEW025=

USA.gov is the U.S. government's official web portal to all federal, state and local government web resources and services.